Time;durP1;ratioP1;P1;durP2;ratioP2;P2;SDS_P1;SDS_P2;PMS_P1;PMS_P2;Temp;Humidity;BMP_temperature;BMP_pressure;BME280_temperature;BME280_humidity;BME280_pressure;Samples;Min_cycle;Max_cycle;Signal;HPM_P1;HPM_P2
2021/08/11 00:02:14;;;;;;;;;;;;;;;30.08;38.63;100630.81;5119487;28;974;-39
2021/08/11 00:04:40;;;;;;;;;;;;;;;30.07;38.70;100629.16;5119605;28;1173;-40
2021/08/11 00:07:05;;;;;;;;;;;;;;;29.96;38.84;100625.19;5119528;28;772;-39
2021/08/11 00:09:30;;;;;;;;;;;;;;;30.05;38.60;100621.22;5119452;28;1078;-39
2021/08/11 00:11:57;;;;;;;;;;;;;;;30.10;38.47;100626.03;5119522;28;1917;-39
2021/08/11 00:14:23;;;;;;;;;;;;;;;30.05;38.65;100623.09;5119320;28;987;-35
2021/08/11 00:16:48;;;;;;;;;;;;;;;30.01;38.87;100627.28;5118879;28;997;-39
2021/08/11 00:19:13;;;;;;;;;;;;;;;30.06;38.65;100619.38;5119480;28;795;-39
2021/08/11 00:21:38;;;;;;;;;;;;;;;30.12;38.63;100623.97;5118755;28;518;-39
2021/08/11 00:24:04;;;;;;;;;;;;;;;30.10;38.83;100620.59;5118993;28;767;-39
2021/08/11 00:26:30;;;;;;;;;;;;;;;30.03;38.69;100625.22;5118839;28;1167;-39
2021/08/11 00:28:55;;;;;;;;;;;;;;;30.07;38.83;100621.03;5100409;28;1442;-39
2021/08/11 00:31:20;;;;;;;;;;;;;;;30.04;38.84;100618.72;5101675;28;994;-40
2021/08/11 00:33:46;;;;;;;;;;;;;;;30.06;38.78;100619.38;5118979;28;1897;-39
2021/08/11 00:36:11;;;;;;;;;;;;;;;30.03;38.67;100626.03;5119170;28;807;-39
2021/08/11 00:38:36;;;;;;;;;;;;;;;30.07;38.77;100629.16;5118503;28;829;-39
2021/08/11 00:41:01;;;;;;;;;;;;;;;30.08;38.82;100621.88;5119135;28;823;-39
2021/08/11 00:43:27;;;;;;;;;;;;;;;30.10;38.79;100627.91;5118945;28;780;-39
2021/08/11 00:45:52;;;;;;;;;;;;;;;30.08;38.71;100616.44;5118710;28;875;-41
2021/08/11 00:48:17;;;;;;;;;;;;;;;30.20;38.30;100612.09;5118776;28;935;-40
2021/08/11 00:50:43;;;;;;;;;;;;;;;30.22;38.24;100611.88;5100521;28;814;-40
2021/08/11 00:53:08;;;;;;;;;;;;;;;30.17;38.33;100604.34;5100117;28;1937;-39
2021/08/11 00:55:37;;;;;;;;;;;;;;;30.10;38.35;100600.78;5111981;28;1142;-39
2021/08/11 00:58:02;;;;;;;;;;;;;;;30.07;38.25;100604.75;5098115;28;835;-39
2021/08/11 01:00:28;;;;;;;;;;;;;;;30.09;38.29;100607.25;5080225;28;742;-40
2021/08/11 01:02:53;;;;;;;;;;;;;;;30.04;38.50;100610.59;5063789;28;951;-40
2021/08/11 01:05:18;;;;;;;;;;;;;;;29.99;38.75;100603.09;5077637;28;779;-37
2021/08/11 01:07:43;;;;;;;;;;;;;;;30.02;38.62;100605.38;5077485;28;862;-40
2021/08/11 01:10:09;;;;;;;;;;;;;;;30.00;38.87;100606.59;5077888;28;772;-40
2021/08/11 01:12:34;;;;;;;;;;;;;;;30.05;38.60;100598.69;5077842;28;1959;-40
2021/08/11 01:15:00;;;;;;;;;;;;;;;30.01;38.97;100590.13;5059316;28;811;-40
2021/08/11 01:17:26;;;;;;;;;;;;;;;29.99;39.04;100588.69;5089168;28;955;-40
2021/08/11 01:19:51;;;;;;;;;;;;;;;30.05;38.62;100590.56;5098046;28;752;-39
2021/08/11 01:22:21;;;;;;;;;;;;;;;30.02;38.70;100594.53;5079354;28;787;-40
2021/08/11 01:25:13;;;;;;;;;;;;;;;30.06;38.88;100600.38;5097837;28;804;-37
2021/08/11 01:27:43;;;;;;;;;;;;;;;29.99;38.77;100608.50;5093897;28;1616;-40
2021/08/11 01:30:11;;;;;;;;;;;;;;;30.06;38.67;100609.34;5079109;28;760;-41
2021/08/11 01:32:55;;;;;;;;;;;;;;;30.05;38.70;100610.38;5096618;28;1901;-39
2021/08/11 01:35:22;;;;;;;;;;;;;;;30.09;38.86;100610.81;5097447;28;748;-39
2021/08/11 01:37:49;;;;;;;;;;;;;;;30.10;38.94;100614.34;5079049;28;887;-40
2021/08/11 01:40:16;;;;;;;;;;;;;;;30.01;39.25;100617.25;5097714;28;752;-40
2021/08/11 01:42:43;;;;;;;;;;;;;;;30.02;38.99;100615.38;5097208;28;811;-41
2021/08/11 01:45:13;;;;;;;;;;;;;;;30.01;39.39;100608.31;5097092;28;798;-41
2021/08/11 01:47:40;;;;;;;;;;;;;;;30.01;39.21;100608.31;5079505;28;1016;-41
2021/08/11 01:50:06;;;;;;;;;;;;;;;30.04;39.04;100614.16;5097234;28;767;-41
2021/08/11 01:52:33;;;;;;;;;;;;;;;30.06;38.76;100614.75;5077979;28;1894;-41
2021/08/11 01:54:58;;;;;;;;;;;;;;;30.05;39.06;100615.81;5096810;28;1247;-41
2021/08/11 01:57:24;;;;;;;;;;;;;;;30.03;38.91;100609.75;5097098;28;878;-41
2021/08/11 01:59:49;;;;;;;;;;;;;;;30.02;39.08;100618.94;5078625;28;711;-41
2021/08/11 02:02:14;;;;;;;;;;;;;;;30.01;39.29;100619.16;5068371;28;978;-41
2021/08/11 02:04:39;;;;;;;;;;;;;;;30.03;39.28;100619.78;5076597;28;747;-41
2021/08/11 02:07:05;;;;;;;;;;;;;;;30.00;39.27;100614.75;5058630;28;840;-41
2021/08/11 02:09:30;;;;;;;;;;;;;;;29.99;39.18;100604.94;5076184;28;812;-41
2021/08/11 02:11:56;;;;;;;;;;;;;;;30.01;39.04;100611.00;5058896;28;1906;-41
2021/08/11 02:14:21;;;;;;;;;;;;;;;30.03;38.96;100606.22;5076439;28;748;-41
2021/08/11 02:16:46;;;;;;;;;;;;;;;30.02;38.90;100608.09;5082961;28;954;-41
2021/08/11 02:19:12;;;;;;;;;;;;;;;30.00;39.03;100609.31;5096937;28;759;-41
2021/08/11 02:21:38;;;;;;;;;;;;;;;29.91;39.50;100608.69;5096350;28;882;-39
2021/08/11 02:24:03;;;;;;;;;;;;;;;30.02;39.32;100610.81;5096963;28;803;-39
2021/08/11 02:26:47;;;;;;;;;;;;;;;30.03;39.30;100617.06;5077913;28;792;-40
2021/08/11 02:29:15;;;;;;;;;;;;;;;30.03;39.34;100617.06;5076283;28;883;-37
2021/08/11 02:31:55;;;;;;;;;;;;;;;29.99;39.56;100629.34;5082214;28;1894;-40
2021/08/11 02:34:30;;;;;;;;;;;;;;;30.03;39.47;100628.75;5096632;28;859;-39
2021/08/11 02:36:57;;;;;;;;;;;;;;;30.05;39.36;100625.81;5077708;28;867;-39
2021/08/11 02:39:26;;;;;;;;;;;;;;;29.98;39.53;100625.00;5096707;28;748;-40
2021/08/11 02:41:53;;;;;;;;;;;;;;;30.04;39.32;100625.00;5079002;28;735;-40
2021/08/11 02:44:48;;;;;;;;;;;;;;;30.03;39.22;100627.94;5096343;28;768;-40
2021/08/11 02:47:13;;;;;;;;;;;;;;;30.00;39.81;100620.16;5078058;28;1237;-40
2021/08/11 02:49:38;;;;;;;;;;;;;;;30.02;39.67;100621.66;5096649;28;876;-40
2021/08/11 02:52:03;;;;;;;;;;;;;;;30.01;39.43;100627.28;5077946;28;1963;-40
2021/08/11 02:54:29;;;;;;;;;;;;;;;30.02;39.45;100620.81;5078555;28;771;-39
2021/08/11 02:56:54;;;;;;;;;;;;;;;30.02;39.48;100627.06;5095910;28;1230;-40
2021/08/11 02:59:21;;;;;;;;;;;;;;;29.97;39.32;100624.16;5077882;28;788;-38
2021/08/11 03:01:46;;;;;;;;;;;;;;;30.03;39.24;100627.94;5078229;28;998;-37
2021/08/11 03:04:11;;;;;;;;;;;;;;;30.06;39.32;100616.66;5078740;28;737;-41
2021/08/11 03:06:37;;;;;;;;;;;;;;;30.04;39.56;100624.16;5095959;28;733;-40
2021/08/11 03:09:02;;;;;;;;;;;;;;;30.01;39.45;100613.72;5096832;28;752;-40
2021/08/11 03:11:28;;;;;;;;;;;;;;;29.81;39.85;100612.63;5096384;28;792;-41
2021/08/11 03:13:53;;;;;;;;;;;;;;;29.60;40.66;100626.31;5093219;28;1981;-41
2021/08/11 03:16:18;;;;;;;;;;;;;;;29.34;38.93;100626.00;5077827;28;927;-40
2021/08/11 03:18:43;;;;;;;;;;;;;;;29.33;35.54;100627.03;5096466;28;800;-39
2021/08/11 03:21:09;;;;;;;;;;;;;;;28.99;36.57;100624.16;5096056;28;752;-40
2021/08/11 03:23:34;;;;;;;;;;;;;;;29.13;37.87;100622.34;5096210;28;822;-41
2021/08/11 03:25:59;;;;;;;;;;;;;;;29.14;37.04;100624.03;5095756;28;764;-41
2021/08/11 03:28:25;;;;;;;;;;;;;;;29.14;37.64;100631.31;5095855;28;1123;-40
2021/08/11 03:30:50;;;;;;;;;;;;;;;28.57;39.65;100624.03;5095925;28;832;-42
2021/08/11 03:33:15;;;;;;;;;;;;;;;28.76;37.90;100627.09;5095782;28;1913;-40
2021/08/11 03:35:40;;;;;;;;;;;;;;;29.05;36.62;100623.34;5095773;28;787;-41
2021/08/11 03:38:06;;;;;;;;;;;;;;;28.95;37.39;100633.66;5095966;28;847;-41
2021/08/11 03:40:31;;;;;;;;;;;;;;;28.72;38.62;100635.59;5096000;28;838;-41
2021/08/11 03:42:57;;;;;;;;;;;;;;;28.77;38.28;100636.88;5095718;28;717;-39
2021/08/11 03:45:22;;;;;;;;;;;;;;;29.17;36.52;100637.16;5096174;28;843;-39
2021/08/11 03:47:47;;;;;;;;;;;;;;;29.03;35.74;100636.25;5077266;28;1278;-39
2021/08/11 03:50:13;;;;;;;;;;;;;;;28.61;39.91;100646.97;5095494;28;728;-39
2021/08/11 03:52:38;;;;;;;;;;;;;;;28.72;38.58;100648.28;5095291;28;1901;-41
2021/08/11 03:55:04;;;;;;;;;;;;;;;28.99;37.29;100645.81;5095362;28;1475;-36
2021/08/11 04:00:32;;;;;;;;;;;;;;;29.31;37.26;100654.31;5099390;28;602;-38
2021/08/11 04:02:57;;;;;;;;;;;;;;;29.30;37.63;100647.22;5099058;28;963;-35
2021/08/11 04:05:23;;;;;;;;;;;;;;;29.16;37.45;100649.03;5098932;28;795;-35
2021/08/11 04:07:48;;;;;;;;;;;;;;;26.24;45.25;100651.88;5099244;28;818;-37
2021/08/11 04:10:13;;;;;;;;;;;;;;;23.79;45.31;100637.28;5099482;28;827;-36
2021/08/11 04:12:39;;;;;;;;;;;;;;;22.12;44.99;100643.38;5098926;28;1902;-37
2021/08/11 04:15:04;;;;;;;;;;;;;;;21.12;44.31;100634.91;5099258;28;823;-36
2021/08/11 04:17:29;;;;;;;;;;;;;;;20.95;44.50;100639.22;5098342;28;942;-37
2021/08/11 04:19:55;;;;;;;;;;;;;;;20.46;44.07;100636.53;5099167;28;812;-37
2021/08/11 04:22:20;;;;;;;;;;;;;;;19.88;43.81;100639.84;5098851;28;772;-37
2021/08/11 04:24:45;;;;;;;;;;;;;;;19.83;42.76;100634.88;5098987;28;768;-35
2021/08/11 04:27:11;;;;;;;;;;;;;;;17.34;49.79;100625.09;5094641;28;1182;-35
2021/08/11 04:29:36;;;;;;;;;;;;;;;18.53;54.33;100634.34;5078299;28;761;-36
2021/08/11 04:32:02;;;;;;;;;;;;;;;19.21;56.44;100633.13;5087785;28;1972;-36
2021/08/11 04:34:27;;;;;;;;;;;;;;;19.64;58.10;100633.00;5098823;28;856;-36
2021/08/11 04:36:52;;;;;;;;;;;;;;;19.79;59.39;100636.16;5098278;28;771;-36
2021/08/11 04:39:18;;;;;;;;;;;;;;;19.42;60.07;100632.22;5099186;28;780;-33
2021/08/11 04:41:43;;;;;;;;;;;;;;;19.09;61.20;100635.00;5098537;28;755;-35
2021/08/11 04:44:10;;;;;;;;;;;;;;;19.10;61.29;100635.88;5098554;28;799;-37
2021/08/11 04:46:39;;;;;;;;;;;;;;;19.40;57.48;100631.50;5098312;28;922;-37
2021/08/11 04:49:04;;;;;;;;;;;;;;;19.33;56.27;100630.38;5098673;28;874;-32
2021/08/11 04:51:29;;;;;;;;;;;;;;;19.26;55.67;100629.22;5098287;28;791;-35
2021/08/11 04:53:55;;;;;;;;;;;;;;;19.18;55.74;100624.53;5079807;28;1971;-33
2021/08/11 04:56:21;;;;;;;;;;;;;;;19.16;54.99;100632.69;5097756;28;1034;-31
2021/08/11 04:58:46;;;;;;;;;;;;;;;19.13;54.96;100630.28;5097798;28;756;-30
2021/08/11 05:01:12;;;;;;;;;;;;;;;19.08;54.92;100627.13;5098110;28;962;-34
2021/08/11 05:03:37;;;;;;;;;;;;;;;19.02;54.96;100627.66;5098143;28;772;-33
2021/08/11 05:06:03;;;;;;;;;;;;;;;18.97;54.94;100631.56;5097786;28;585;-36
2021/08/11 05:08:28;;;;;;;;;;;;;;;19.03;54.59;100626.69;5096643;28;815;-35
2021/08/11 05:10:53;;;;;;;;;;;;;;;19.03;54.71;100629.34;5097930;28;1045;-34
2021/08/11 05:13:19;;;;;;;;;;;;;;;19.03;54.52;100629.34;5097756;28;1914;-34
2021/08/11 05:15:44;;;;;;;;;;;;;;;19.02;54.64;100627.66;5098075;28;758;-38
2021/08/11 05:18:09;;;;;;;;;;;;;;;18.88;54.68;100635.00;5097365;28;950;-32
2021/08/11 05:20:35;;;;;;;;;;;;;;;18.93;54.49;100637.28;5097473;28;808;-33
2021/08/11 05:23:00;;;;;;;;;;;;;;;18.92;54.57;100639.09;5098008;28;898;-36
2021/08/11 05:25:25;;;;;;;;;;;;;;;18.85;54.75;100638.75;5098086;28;835;-37
2021/08/11 05:27:51;;;;;;;;;;;;;;;18.79;54.84;100635.78;5087844;28;1131;-38
2021/08/11 05:30:16;;;;;;;;;;;;;;;18.77;55.00;100641.25;5077596;28;775;-33
2021/08/11 05:32:41;;;;;;;;;;;;;;;18.91;54.86;100648.06;5091824;28;1957;-34
2021/08/11 05:35:07;;;;;;;;;;;;;;;18.76;55.00;100644.03;5097223;28;827;-38
2021/08/11 05:37:32;;;;;;;;;;;;;;;18.71;55.13;100641.75;5097593;28;814;-35
2021/08/11 05:39:57;;;;;;;;;;;;;;;18.69;55.11;100647.22;5097343;28;865;-36
2021/08/11 05:42:23;;;;;;;;;;;;;;;18.62;55.43;100640.69;5097298;28;772;-36
2021/08/11 05:44:50;;;;;;;;;;;;;;;18.60;55.21;100645.34;5097642;28;866;-36
2021/08/11 05:47:15;;;;;;;;;;;;;;;18.64;55.26;100643.22;5096775;28;919;-33
2021/08/11 05:49:40;;;;;;;;;;;;;;;18.71;55.33;100642.63;5097050;28;910;-32
2021/08/11 05:52:06;;;;;;;;;;;;;;;18.73;55.46;100639.81;5097054;28;1909;-38
2021/08/11 05:54:31;;;;;;;;;;;;;;;18.60;55.60;100638.16;5097295;28;768;-34
2021/08/11 05:56:57;;;;;;;;;;;;;;;18.60;55.53;100637.34;5096793;28;1075;-38
2021/08/11 05:59:22;;;;;;;;;;;;;;;18.58;55.14;100636.63;5096506;28;851;-36
2021/08/11 06:01:47;;;;;;;;;;;;;;;18.54;55.64;100632.50;5096962;28;974;-34
2021/08/11 06:04:13;;;;;;;;;;;;;;;18.49;55.74;100635.56;5096967;28;811;-37
2021/08/11 06:06:38;;;;;;;;;;;;;;;18.59;55.42;100635.63;5096643;28;804;-33
2021/08/11 06:09:03;;;;;;;;;;;;;;;18.63;55.83;100639.75;5097062;28;776;-38
2021/08/11 06:11:28;;;;;;;;;;;;;;;18.61;55.72;100644.34;5096689;28;759;-32
2021/08/11 06:13:54;;;;;;;;;;;;;;;18.60;55.64;100642.69;5096696;28;1972;-34
2021/08/11 06:16:19;;;;;;;;;;;;;;;18.55;55.89;100642.22;5096805;28;946;-37
2021/08/11 06:18:44;;;;;;;;;;;;;;;18.64;55.63;100648.56;5096144;28;828;-33
2021/08/11 06:21:10;;;;;;;;;;;;;;;18.66;55.49;100647.47;5097105;28;799;-37
2021/08/11 06:23:35;;;;;;;;;;;;;;;18.67;55.53;100648.31;5096991;28;767;-37
2021/08/11 06:26:01;;;;;;;;;;;;;;;18.81;55.42;100650.69;5096264;28;795;-34
2021/08/11 06:28:26;;;;;;;;;;;;;;;18.88;55.42;100653.66;5082325;28;1194;-34
2021/08/11 06:30:52;;;;;;;;;;;;;;;18.77;55.50;100657.22;5076497;28;797;-33
2021/08/11 06:33:17;;;;;;;;;;;;;;;18.85;55.33;100651.28;5095177;28;1898;-37
2021/08/11 06:35:42;;;;;;;;;;;;;;;18.64;56.00;100652.09;5096686;28;818;-36
2021/08/11 06:38:07;;;;;;;;;;;;;;;18.79;55.74;100652.63;5096610;28;945;-30
2021/08/11 06:40:36;;;;;;;;;;;;;;;18.93;55.58;100653.28;5096056;28;741;-34
2021/08/11 06:43:01;;;;;;;;;;;;;;;19.03;55.25;100646.19;5096582;28;822;-38
2021/08/11 06:45:26;;;;;;;;;;;;;;;19.02;55.86;100654.31;5096744;28;760;-37
2021/08/11 06:47:52;;;;;;;;;;;;;;;19.06;55.33;100655.75;5095932;28;915;-37
2021/08/11 06:50:17;;;;;;;;;;;;;;;18.88;55.59;100659.00;5096219;28;760;-33
2021/08/11 06:52:42;;;;;;;;;;;;;;;18.78;55.79;100663.41;5096869;28;1901;-34
2021/08/11 06:55:12;;;;;;;;;;;;;;;18.67;56.00;100659.81;5096056;28;1111;-37
2021/08/11 06:57:37;;;;;;;;;;;;;;;18.66;55.97;100660.81;5096518;28;776;-37
2021/08/11 07:00:03;;;;;;;;;;;;;;;18.74;56.33;100665.47;5096376;28;788;-37
2021/08/11 07:02:28;;;;;;;;;;;;;;;18.65;56.17;100664.41;5096008;28;966;-37
2021/08/11 07:04:53;;;;;;;;;;;;;;;18.57;56.37;100664.22;5096428;28;834;-37
2021/08/11 07:07:19;;;;;;;;;;;;;;;18.50;56.52;100671.03;5096368;28;870;-35
2021/08/11 07:09:44;;;;;;;;;;;;;;;18.53;56.43;100668.97;5096168;28;807;-35
2021/08/11 07:12:09;;;;;;;;;;;;;;;18.52;56.37;100656.63;5096001;28;1972;-32
2021/08/11 07:14:35;;;;;;;;;;;;;;;18.51;56.51;100662.06;5096539;28;801;-38
2021/08/11 07:17:00;;;;;;;;;;;;;;;18.65;56.33;100658.28;5095808;28;966;-34
2021/08/11 07:19:25;;;;;;;;;;;;;;;18.57;56.50;100654.41;5095935;28;874;-33
2021/08/11 07:21:50;;;;;;;;;;;;;;;18.55;56.83;100653.69;5096154;28;819;-35
2021/08/11 07:24:16;;;;;;;;;;;;;;;18.65;56.25;100650.28;5096351;28;878;-37
2021/08/11 07:26:41;;;;;;;;;;;;;;;18.59;56.50;100647.16;5096217;28;775;-36
2021/08/11 07:29:06;;;;;;;;;;;;;;;18.50;56.90;100650.56;5075919;28;1265;-36
2021/08/11 07:31:32;;;;;;;;;;;;;;;18.54;56.79;100645.81;5082509;28;978;-36
2021/08/11 07:33:57;;;;;;;;;;;;;;;18.59;56.95;100647.16;5081252;28;1910;-34
2021/08/11 07:36:22;;;;;;;;;;;;;;;18.70;56.91;100645.41;5099773;28;736;-33
2021/08/11 07:38:47;;;;;;;;;;;;;;;18.67;57.07;100642.97;5100077;28;831;-37
2021/08/11 07:41:13;;;;;;;;;;;;;;;18.63;57.14;100644.22;5099775;28;772;-35
2021/08/11 07:43:38;;;;;;;;;;;;;;;18.61;57.12;100641.69;5099202;28;870;-38
2021/08/11 07:46:04;;;;;;;;;;;;;;;18.68;56.85;100644.69;5099619;28;1028;-34
2021/08/11 07:48:29;;;;;;;;;;;;;;;18.62;57.08;100646.03;5099370;28;784;-37
2021/08/11 07:50:54;;;;;;;;;;;;;;;18.58;57.18;100647.28;5099136;28;1403;-37
2021/08/11 07:53:19;;;;;;;;;;;;;;;18.65;57.30;100645.78;5099715;28;1972;-33
2021/08/11 07:55:45;;;;;;;;;;;;;;;18.76;57.47;100650.22;5099098;28;1247;-37
2021/08/11 07:58:10;;;;;;;;;;;;;;;18.66;57.22;100643.97;5099699;28;831;-37
2021/08/11 08:00:35;;;;;;;;;;;;;;;18.65;57.44;100643.09;5099431;28;753;-34
2021/08/11 08:03:00;;;;;;;;;;;;;;;18.66;57.38;100644.81;5098974;28;1002;-34
2021/08/11 08:05:26;;;;;;;;;;;;;;;18.63;57.34;100647.75;5099332;28;787;-33
2021/08/11 08:07:51;;;;;;;;;;;;;;;18.68;57.05;100642.03;5099399;28;780;-38
2021/08/11 08:10:16;;;;;;;;;;;;;;;18.58;57.53;100642.78;5098603;28;583;-34
2021/08/11 08:12:43;;;;;;;;;;;;;;;21.94;48.58;100646.84;5099216;28;1905;-32
2021/08/11 08:15:09;;;;;;;;;;;;;;;23.09;45.59;100642.66;5099632;28;831;-37
2021/08/11 08:17:34;;;;;;;;;;;;;;;23.71;44.28;100645.31;5080337;28;1394;-32
2021/08/11 08:19:59;;;;;;;;;;;;;;;24.14;43.76;100641.75;5098990;28;748;-37
2021/08/11 08:22:24;;;;;;;;;;;;;;;24.42;43.24;100642.28;5098955;28;811;-32
2021/08/11 08:24:54;;;;;;;;;;;;;;;24.68;43.06;100637.75;5098271;28;817;-34
2021/08/11 08:27:20;;;;;;;;;;;;;;;24.86;42.50;100642.94;5094048;28;1166;-38
2021/08/11 08:29:45;;;;;;;;;;;;;;;25.02;42.59;100631.38;5078827;28;772;-35
2021/08/11 08:32:11;;;;;;;;;;;;;;;25.20;42.43;100638.38;5088246;28;1901;-35
2021/08/11 08:34:36;;;;;;;;;;;;;;;25.30;42.45;100630.09;5098747;28;763;-34
2021/08/11 08:37:01;;;;;;;;;;;;;;;25.50;42.04;100633.22;5099168;28;808;-33
2021/08/11 08:39:27;;;;;;;;;;;;;;;25.63;42.00;100623.75;5098614;28;775;-35
2021/08/11 08:41:53;;;;;;;;;;;;;;;25.75;41.80;100625.06;5098470;28;760;-32
2021/08/11 08:44:18;;;;;;;;;;;;;;;25.85;41.75;100627.53;5098367;28;826;-35
2021/08/11 08:46:44;;;;;;;;;;;;;;;25.97;41.43;100621.72;5079512;28;908;-34
2021/08/11 08:49:09;;;;;;;;;;;;;;;26.02;41.34;100616.66;5080379;28;863;-36
2021/08/11 08:51:38;;;;;;;;;;;;;;;26.20;41.38;100616.34;5098641;28;848;-34
2021/08/11 08:54:03;;;;;;;;;;;;;;;26.33;40.96;100612.22;5080761;28;1968;-34
2021/08/11 08:56:28;;;;;;;;;;;;;;;26.37;40.86;100611.72;5098359;28;1173;-34
2021/08/11 08:58:53;;;;;;;;;;;;;;;26.50;40.55;100621.03;5098028;28;1043;-36
2021/08/11 09:01:19;;;;;;;;;;;;;;;26.48;40.78;100621.22;5097707;28;1002;-32
2021/08/11 09:03:44;;;;;;;;;;;;;;;26.56;40.65;100617.59;5098420;28;772;-37
2021/08/11 09:06:09;;;;;;;;;;;;;;;26.64;40.61;100616.69;5098092;28;839;-33
2021/08/11 09:08:34;;;;;;;;;;;;;;;26.73;40.59;100606.66;5098309;28;763;-33
2021/08/11 09:11:15;;;;;;;;;;;;;;;26.74;40.73;100601.06;5098285;28;858;-35
2021/08/11 09:13:40;;;;;;;;;;;;;;;26.84;40.41;100600.78;5097697;28;2012;-33
2021/08/11 09:16:06;;;;;;;;;;;;;;;26.88;40.61;100587.78;5097527;28;951;-33
2021/08/11 09:18:31;;;;;;;;;;;;;;;26.89;40.81;100606.47;5098049;28;882;-34
2021/08/11 09:21:03;;;;;;;;;;;;;;;26.98;40.69;100599.13;5097927;28;739;-36
2021/08/11 09:23:35;;;;;;;;;;;;;;;26.37;41.90;100598.22;5097485;28;811;-32
2021/08/11 09:26:05;;;;;;;;;;;;;;;26.83;41.01;100603.69;5097599;28;804;-31
2021/08/11 09:28:30;;;;;;;;;;;;;;;26.98;40.75;100601.00;5083023;28;1147;-31
2021/08/11 09:30:56;;;;;;;;;;;;;;;26.98;40.81;100601.00;5077520;28;775;-32
2021/08/11 09:33:23;;;;;;;;;;;;;;;27.00;40.75;100594.41;5097436;28;1911;-38
2021/08/11 09:35:48;;;;;;;;;;;;;;;27.12;40.77;100599.34;5097645;28;781;-37
2021/08/11 09:38:14;;;;;;;;;;;;;;;27.33;40.16;100590.50;5097018;28;971;-35
2021/08/11 09:40:40;;;;;;;;;;;;;;;27.45;39.82;100585.44;5097663;28;811;-34
2021/08/11 09:43:06;;;;;;;;;;;;;;;27.40;40.23;100587.88;5097438;28;811;-37
2021/08/11 09:45:57;;;;;;;;;;;;;;;27.42;40.14;100587.69;5078694;28;812;-35
2021/08/11 09:48:22;;;;;;;;;;;;;;;27.52;40.25;100588.22;5097220;28;768;-33
2021/08/11 09:50:53;;;;;;;;;;;;;;;27.60;39.92;100600.78;5078423;28;989;-35
2021/08/11 09:53:32;;;;;;;;;;;;;;;27.64;40.17;100591.28;5096241;28;1902;-30
2021/08/11 09:56:09;;;;;;;;;;;;;;;27.67;39.86;100600.84;5096992;28;1250;-33
2021/08/11 09:58:36;;;;;;;;;;;;;;;27.68;40.00;100589.88;5097336;28;812;-33
2021/08/11 10:01:02;;;;;;;;;;;;;;;27.64;40.38;100583.16;5096364;28;1056;-38
2021/08/11 10:03:27;;;;;;;;;;;;;;;27.65;39.91;100592.94;5096740;28;829;-34
2021/08/11 10:05:53;;;;;;;;;;;;;;;27.65;40.53;100590.25;5097223;28;722;-33
2021/08/11 10:08:28;;;;;;;;;;;;;;;27.69;40.29;100585.31;5095489;28;996;-36
2021/08/11 10:10:54;;;;;;;;;;;;;;;27.69;40.44;100585.31;5097127;28;833;-37
2021/08/11 10:13:20;;;;;;;;;;;;;;;27.71;40.27;100592.19;5096879;28;1972;-37
2021/08/11 10:15:46;;;;;;;;;;;;;;;27.80;39.86;100601.03;5077898;28;1375;-33
2021/08/11 10:18:11;;;;;;;;;;;;;;;27.82;39.85;100596.28;5078775;28;999;-32
2021/08/11 10:20:37;;;;;;;;;;;;;;;27.73;40.23;100590.16;5096562;28;808;-38
2021/08/11 10:23:02;;;;;;;;;;;;;;;27.82;40.02;100599.00;5096184;28;831;-35
2021/08/11 10:25:27;;;;;;;;;;;;;;;27.81;39.91;100594.59;5078546;28;911;-38
2021/08/11 10:27:53;;;;;;;;;;;;;;;27.84;39.91;100588.78;5078255;28;1128;-34
2021/08/11 10:30:18;;;;;;;;;;;;;;;27.82;40.19;100595.44;5096004;28;1022;-37
2021/08/11 10:32:43;;;;;;;;;;;;;;;27.89;39.93;100587.41;5096232;28;1968;-35
2021/08/11 10:35:09;;;;;;;;;;;;;;;27.91;40.06;100580.75;5078736;28;760;-38
2021/08/11 10:37:35;;;;;;;;;;;;;;;27.98;39.86;100580.81;5096078;28;799;-33
2021/08/11 10:40:01;;;;;;;;;;;;;;;27.96;40.01;100575.63;5096354;28;930;-35
2021/08/11 10:42:26;;;;;;;;;;;;;;;27.92;39.88;100573.50;5096352;28;840;-36
2021/08/11 10:44:55;;;;;;;;;;;;;;;27.95;39.86;100575.81;5095561;28;858;-33
2021/08/11 10:47:20;;;;;;;;;;;;;;;28.00;39.79;100567.97;5078259;28;987;-35
2021/08/11 10:50:05;;;;;;;;;;;;;;;27.99;40.07;100561.72;5078387;28;1316;-35
2021/08/11 10:52:31;;;;;;;;;;;;;;;28.04;40.16;100571.97;5096214;28;1890;-34
2021/08/11 10:54:58;;;;;;;;;;;;;;;27.97;40.10;100566.50;5077774;28;1073;-33
2021/08/11 10:57:38;;;;;;;;;;;;;;;28.04;40.23;100563.84;5096367;28;859;-33
2021/08/11 11:00:04;;;;;;;;;;;;;;;28.09;39.89;100560.56;5096007;28;795;-38
2021/08/11 11:02:42;;;;;;;;;;;;;;;28.11;40.17;100558.50;5096129;28;955;-33
2021/08/11 11:05:07;;;;;;;;;;;;;;;28.13;40.06;100556.41;5097591;28;799;-37
2021/08/11 11:07:33;;;;;;;;;;;;;;;28.13;39.99;100556.41;5099907;28;819;-36
2021/08/11 11:10:16;;;;;;;;;;;;;;;28.19;39.96;100552.13;5100830;28;859;-37
2021/08/11 11:12:42;;;;;;;;;;;;;;;28.12;40.03;100549.34;5100395;28;1969;-36
2021/08/11 11:15:07;;;;;;;;;;;;;;;28.09;40.09;100550.56;5099949;28;850;-39
2021/08/11 11:17:34;;;;;;;;;;;;;;;28.18;40.15;100547.72;5099915;28;951;-35
2021/08/11 11:20:03;;;;;;;;;;;;;;;28.17;39.92;100538.78;5099983;28;861;-37
2021/08/11 11:22:52;;;;;;;;;;;;;;;28.23;39.75;100540.69;5099880;28;748;-34
2021/08/11 11:25:18;;;;;;;;;;;;;;;28.27;39.22;100538.44;5089536;28;1457;-35
2021/08/11 11:27:44;;;;;;;;;;;;;;;28.32;39.08;100538.69;5091562;28;1119;-35
2021/08/11 11:30:09;;;;;;;;;;;;;;;28.34;39.26;100541.25;5079553;28;814;-36
2021/08/11 11:32:35;;;;;;;;;;;;;;;28.34;38.78;100533.94;5094690;28;1906;-35
2021/08/11 11:35:16;;;;;;;;;;;;;;;28.37;38.83;100532.72;5099621;28;763;-33
2021/08/11 11:37:41;;;;;;;;;;;;;;;28.34;38.57;100546.66;5099856;28;778;-37
2021/08/11 11:40:07;;;;;;;;;;;;;;;28.29;38.57;100549.91;5099824;28;824;-32
2021/08/11 11:42:32;;;;;;;;;;;;;;;28.35;38.83;100540.19;5099906;28;779;-35
2021/08/11 11:44:58;;;;;;;;;;;;;;;28.28;38.83;100532.00;5099336;28;768;-35
2021/08/11 11:47:42;;;;;;;;;;;;;;;28.41;38.46;100536.69;5098729;28;1001;-37
2021/08/11 11:50:25;;;;;;;;;;;;;;;28.46;38.51;100539.66;5099485;28;851;-35
2021/08/11 11:52:54;;;;;;;;;;;;;;;28.48;38.85;100534.03;5099222;28;1969;-36
2021/08/11 11:55:31;;;;;;;;;;;;;;;28.38;38.85;100522.75;5099292;28;1395;-32
2021/08/11 11:57:57;;;;;;;;;;;;;;;28.39;38.88;100527.97;5099859;28;789;-36
2021/08/11 12:00:22;;;;;;;;;;;;;;;28.40;39.07;100539.59;5098952;28;803;-36
2021/08/11 12:02:51;;;;;;;;;;;;;;;28.33;39.07;100542.25;5099908;28;978;-35
2021/08/11 12:05:16;;;;;;;;;;;;;;;28.31;38.86;100536.19;5099591;28;770;-35
2021/08/11 12:07:41;;;;;;;;;;;;;;;28.36;38.78;100531.06;5098774;28;805;-36
2021/08/11 12:10:07;;;;;;;;;;;;;;;28.35;39.04;100526.66;5099349;28;836;-38
2021/08/11 12:12:32;;;;;;;;;;;;;;;24.54;46.81;100524.47;5098916;28;1902;-35
2021/08/11 12:15:17;;;;;;;;;;;;;;;22.73;49.36;100536.34;5098610;28;866;-36
2021/08/11 12:17:42;;;;;;;;;;;;;;;22.59;47.71;100526.13;5097865;28;998;-35
2021/08/11 12:20:34;;;;;;;;;;;;;;;22.37;46.69;100518.47;5098736;28;812;-34
2021/08/11 12:23:00;;;;;;;;;;;;;;;22.05;46.69;100511.88;5094677;28;2199;-35
2021/08/11 12:25:27;;;;;;;;;;;;;;;21.87;46.22;100515.38;5098773;28;776;-33
2021/08/11 12:28:25;;;;;;;;;;;;;;;21.47;46.70;100509.44;5098862;28;1099;-36
2021/08/11 12:30:54;;;;;;;;;;;;;;;20.17;48.76;100510.00;5054154;28;1155;-35
2021/08/11 12:33:19;;;;;;;;;;;;;;;19.27;50.87;100514.38;5080765;28;1905;-34
2021/08/11 12:35:45;;;;;;;;;;;;;;;18.90;51.82;100517.59;5098241;28;775;-35
2021/08/11 12:38:10;;;;;;;;;;;;;;;18.63;52.10;100506.53;5098633;28;886;-34
2021/08/11 12:40:36;;;;;;;;;;;;;;;18.48;52.43;100503.38;5098988;28;760;-34
2021/08/11 12:43:02;;;;;;;;;;;;;;;18.29;52.97;100506.72;5098043;28;558;-35
2021/08/11 12:45:28;;;;;;;;;;;;;;;18.20;53.23;100495.06;5098620;28;779;-36
2021/08/11 12:47:53;;;;;;;;;;;;;;;18.14;53.17;100507.06;5079832;28;1260;-37
2021/08/11 12:50:20;;;;;;;;;;;;;;;17.99;53.17;100502.00;5098057;28;858;-33
2021/08/11 12:52:55;;;;;;;;;;;;;;;17.91;53.25;100500.94;5098710;28;1963;-35
2021/08/11 12:55:30;;;;;;;;;;;;;;;17.86;53.31;100498.66;5098095;28;1062;-35
2021/08/11 12:57:55;;;;;;;;;;;;;;;17.77;53.46;100507.44;5098005;28;754;-33